createdAt,value
2023-03-07T00:01:29.677Z,98399.94
2023-03-07T00:03:59.850Z,98407.06
2023-03-07T00:06:28.799Z,98408.59
2023-03-07T00:08:59.455Z,98404.97
2023-03-07T00:11:28.770Z,98404.69
2023-03-07T00:13:59.953Z,98404.72
2023-03-07T00:16:29.959Z,98397.94
2023-03-07T00:18:59.138Z,98398.75
2023-03-07T00:21:31.406Z,98397.09
2023-03-07T00:24:00.277Z,98404.97
2023-03-07T00:26:29.244Z,98396.22
2023-03-07T00:28:58.015Z,98392.19
2023-03-07T00:31:26.488Z,98398.25
2023-03-07T00:33:56.801Z,98402.44
2023-03-07T00:36:25.681Z,98404.22
2023-03-07T00:38:54.654Z,98405.81
2023-03-07T00:41:25.988Z,98403.16
2023-03-07T00:43:55.839Z,98405.69
2023-03-07T00:46:25.818Z,98419.25
2023-03-07T00:48:56.038Z,98422.78
2023-03-07T00:51:25.901Z,98442.28
2023-03-07T00:53:54.808Z,98445.88
2023-03-07T00:56:25.194Z,98442.03
2023-03-07T00:58:54.543Z,98439.66
2023-03-07T01:01:25.638Z,98435.97
2023-03-07T01:03:56.862Z,98433.31
2023-03-07T01:06:27.097Z,98414.44
2023-03-07T01:08:58.871Z,98414.13
2023-03-07T01:11:28.629Z,98412.09
2023-03-07T01:13:58.156Z,98396.22
2023-03-07T01:16:28.744Z,98383.84
2023-03-07T01:19:02.781Z,98387.59
2023-03-07T01:21:33.624Z,98389.53
2023-03-07T01:24:06.245Z,98381.31
2023-03-07T01:26:36.012Z,98376.00
2023-03-07T01:29:07.485Z,98369.88
2023-03-07T01:31:38.149Z,98361.22
2023-03-07T01:34:09.115Z,98355.97
2023-03-07T01:36:38.732Z,98366.78
2023-03-07T01:39:13.202Z,98365.63
2023-03-07T01:42:04.250Z,98375.00
2023-03-07T01:44:33.452Z,98364.19
2023-03-07T01:47:02.300Z,98373.53
2023-03-07T01:49:53.232Z,98362.63
2023-03-07T01:52:26.822Z,98360.78
2023-03-07T01:55:04.125Z,98367.59
2023-03-07T01:57:37.010Z,98369.56
2023-03-07T02:00:11.567Z,98365.19
2023-03-07T02:02:46.678Z,98368.03
2023-03-07T02:05:26.852Z,98355.66
2023-03-07T02:07:58.289Z,98359.88
2023-03-07T02:10:33.044Z,98358.06
2023-03-07T02:13:02.005Z,98356.34
2023-03-07T02:15:31.117Z,98350.31
2023-03-07T02:18:00.295Z,98343.97
2023-03-07T02:20:41.299Z,98339.91
2023-03-07T02:23:20.404Z,98347.91
2023-03-07T02:25:58.198Z,98346.81
2023-03-07T02:28:29.747Z,98346.78
2023-03-07T02:31:00.210Z,98343.22
2023-03-07T02:33:32.186Z,98339.84
2023-03-07T02:36:09.258Z,98344.19
2023-03-07T02:38:44.320Z,98334.19
2023-03-07T02:41:16.816Z,98340.56
2023-03-07T02:43:46.833Z,98334.44
2023-03-07T02:46:15.736Z,98346.59
2023-03-07T02:48:44.527Z,98345.72
2023-03-07T02:51:13.779Z,98339.63
2023-03-07T02:53:45.942Z,98331.06
2023-03-07T02:56:15.187Z,98330.97
2023-03-07T02:58:43.820Z,98329.97
2023-03-07T03:01:14.443Z,98327.25
2023-03-07T03:03:44.682Z,98329.88
2023-03-07T03:06:15.994Z,98333.28
2023-03-07T03:08:46.237Z,98335.03
2023-03-07T03:11:15.644Z,98336.66
2023-03-07T03:13:44.400Z,98334.09
2023-03-07T03:16:15.098Z,98327.16
2023-03-07T03:18:43.938Z,98324.41
2023-03-07T03:21:14.560Z,98326.91
2023-03-07T03:23:43.461Z,98327.06
2023-03-07T03:26:12.969Z,98326.03
2023-03-07T03:28:41.949Z,98319.88
2023-03-07T03:31:15.176Z,98323.25
2023-03-07T03:33:45.800Z,98318.91
2023-03-07T03:36:17.875Z,98310.97
2023-03-07T03:38:49.678Z,98322.50
2023-03-07T03:41:18.807Z,98323.41
2023-03-07T03:43:49.986Z,98332.22
2023-03-07T03:46:19.796Z,98325.75
2023-03-07T03:48:54.406Z,98336.47
2023-03-07T03:51:27.271Z,98336.09
2023-03-07T03:53:58.784Z,98334.88
2023-03-07T03:56:29.921Z,98329.97
2023-03-07T03:58:59.073Z,98331.63
2023-03-07T04:01:29.850Z,98325.28
2023-03-07T04:04:00.865Z,98321.41
2023-03-07T04:06:32.166Z,98330.34
2023-03-07T04:09:02.430Z,98325.63
2023-03-07T04:11:31.379Z,98325.09
2023-03-07T04:14:00.377Z,98328.38
2023-03-07T04:16:30.238Z,98330.81
2023-03-07T04:19:00.498Z,98331.00
2023-03-07T04:21:29.779Z,98335.91
2023-03-07T04:24:00.217Z,98338.97
2023-03-07T04:26:35.143Z,98344.31
2023-03-07T04:29:04.378Z,98339.59
2023-03-07T04:31:37.558Z,98342.41
2023-03-07T04:34:08.963Z,98349.53
2023-03-07T04:36:37.896Z,98344.78
2023-03-07T04:39:07.567Z,98343.56
2023-03-07T04:41:39.028Z,98341.63
2023-03-07T04:44:21.201Z,98339.59
2023-03-07T04:46:50.228Z,98334.06
2023-03-07T04:49:20.652Z,98338.22
2023-03-07T04:51:51.103Z,98342.34
2023-03-07T04:54:20.771Z,98338.88
2023-03-07T04:56:51.522Z,98338.69
2023-03-07T04:59:21.474Z,98339.50
2023-03-07T05:01:51.475Z,98345.44
2023-03-07T05:04:21.863Z,98343.63
2023-03-07T05:06:51.047Z,98348.00
2023-03-07T05:09:19.798Z,98345.72
2023-03-07T05:11:49.081Z,98340.69
2023-03-07T05:14:17.921Z,98344.78
2023-03-07T05:16:46.827Z,98347.25
2023-03-07T05:19:16.032Z,98352.47
2023-03-07T05:21:47.683Z,98345.38
2023-03-07T05:24:16.698Z,98347.16
2023-03-07T05:26:45.707Z,98354.19
2023-03-07T05:29:14.272Z,98352.47
2023-03-07T05:31:43.471Z,98341.03
2023-03-07T05:34:12.278Z,98349.59
2023-03-07T05:36:42.626Z,98355.59
2023-03-07T05:39:13.181Z,98355.13
2023-03-07T05:41:42.145Z,98361.31
2023-03-07T05:44:12.349Z,98371.22
2023-03-07T05:46:41.718Z,98376.44
2023-03-07T05:49:10.449Z,98381.47
2023-03-07T05:51:39.337Z,98383.56
2023-03-07T05:54:08.315Z,98393.84
2023-03-07T05:56:39.365Z,98398.97
2023-03-07T05:59:11.290Z,98409.03
2023-03-07T06:01:40.284Z,98410.69
2023-03-07T06:04:09.177Z,98410.28
2023-03-07T06:06:38.436Z,98409.41
2023-03-07T06:09:07.698Z,98404.69
2023-03-07T06:11:36.944Z,98392.06
2023-03-07T06:14:07.284Z,98391.13
2023-03-07T06:16:36.665Z,98394.63
2023-03-07T06:19:05.616Z,98398.16
2023-03-07T06:21:34.715Z,98400.06
2023-03-07T06:24:03.584Z,98399.28
2023-03-07T06:26:32.726Z,98401.28
2023-03-07T06:29:01.958Z,98408.31
2023-03-07T06:31:32.754Z,98412.09
2023-03-07T06:34:01.777Z,98411.50
2023-03-07T06:36:31.241Z,98408.31
2023-03-07T06:39:04.157Z,98408.88
2023-03-07T06:41:33.489Z,98405.81
2023-03-07T06:44:03.936Z,98412.50
2023-03-07T06:46:36.233Z,98410.41
2023-03-07T06:49:11.123Z,98417.25
2023-03-07T06:52:00.674Z,98404.22
2023-03-07T06:54:29.370Z,98413.41
2023-03-07T06:56:58.343Z,98413.13
2023-03-07T06:59:27.105Z,98408.28
2023-03-07T07:01:57.692Z,98415.69
2023-03-07T07:04:26.401Z,98417.00
2023-03-07T07:06:55.381Z,98420.00
2023-03-07T07:09:24.213Z,98422.22
2023-03-07T07:11:53.175Z,98415.97
2023-03-07T07:14:22.230Z,98425.91
2023-03-07T07:16:51.874Z,98425.50
2023-03-07T07:19:23.097Z,98421.44
2023-03-07T07:21:52.581Z,98420.69
2023-03-07T07:24:21.251Z,98421.69
2023-03-07T07:26:50.763Z,98421.88
2023-03-07T07:29:39.452Z,98423.91
2023-03-07T07:32:11.658Z,98433.16
2023-03-07T07:34:43.632Z,98418.66
2023-03-07T07:37:13.363Z,98424.31
2023-03-07T07:39:43.917Z,98426.81
2023-03-07T07:42:13.904Z,98417.47
2023-03-07T07:44:55.214Z,98423.78
2023-03-07T07:47:24.346Z,98419.69
2023-03-07T07:49:54.317Z,98419.03
2023-03-07T07:52:23.786Z,98417.75
2023-03-07T07:54:53.485Z,98414.44
2023-03-07T07:57:22.894Z,98415.91
2023-03-07T07:59:52.679Z,98424.91
2023-03-07T08:02:21.675Z,98421.00
2023-03-07T08:04:50.619Z,98416.09
2023-03-07T08:07:21.115Z,98414.59
2023-03-07T08:09:49.960Z,98421.38
2023-03-07T08:12:19.305Z,98413.75
2023-03-07T08:14:49.517Z,98415.13
2023-03-07T08:17:18.551Z,98411.81
2023-03-07T08:19:47.698Z,98403.81
2023-03-07T08:22:17.500Z,98409.41
2023-03-07T08:24:47.723Z,98411.53
2023-03-07T08:27:16.679Z,98409.63
2023-03-07T08:29:49.034Z,98405.91
2023-03-07T08:32:18.271Z,98397.59
2023-03-07T08:34:47.306Z,98401.44
2023-03-07T08:37:16.417Z,98402.66
2023-03-07T08:39:45.068Z,98398.84
2023-03-07T08:42:15.500Z,98404.34
2023-03-07T08:44:46.844Z,98396.41
2023-03-07T08:47:19.060Z,98405.25
2023-03-07T08:49:47.724Z,98391.75
2023-03-07T08:52:18.270Z,98387.06
2023-03-07T08:54:47.157Z,98392.41
2023-03-07T08:57:17.718Z,98391.25
2023-03-07T08:59:47.192Z,98395.69
2023-03-07T09:02:16.148Z,98395.22
2023-03-07T09:04:45.719Z,98397.00
2023-03-07T09:07:15.244Z,98394.56
2023-03-07T09:09:44.095Z,98392.22
2023-03-07T09:12:14.829Z,98388.94
2023-03-07T09:15:05.350Z,98392.69
2023-03-07T09:17:34.627Z,98394.13
2023-03-07T09:20:04.588Z,98389.13
2023-03-07T09:22:33.748Z,98388.75
2023-03-07T09:25:02.988Z,98396.50
2023-03-07T09:27:32.020Z,98394.94
2023-03-07T09:30:00.980Z,98391.59
2023-03-07T09:32:33.322Z,98388.38
2023-03-07T09:35:02.129Z,98391.16
2023-03-07T09:37:31.320Z,98384.41
2023-03-07T09:40:00.476Z,98378.16
2023-03-07T09:42:38.185Z,98384.50
2023-03-07T09:45:38.862Z,98362.81
2023-03-07T09:48:46.194Z,98374.38
2023-03-07T09:51:19.791Z,98363.03
2023-03-07T09:53:54.622Z,98369.94
2023-03-07T09:56:26.615Z,98359.03
2023-03-07T09:59:08.553Z,98370.50
2023-03-07T10:01:45.686Z,98360.19
2023-03-07T10:04:22.516Z,98359.66
2023-03-07T10:06:58.352Z,98357.06
2023-03-07T10:09:29.454Z,98355.00
2023-03-07T10:12:25.628Z,98346.03
2023-03-07T10:15:13.107Z,98345.91
2023-03-07T10:17:58.401Z,98348.22
2023-03-07T10:20:37.187Z,98350.47
2023-03-07T10:23:31.117Z,98353.97
2023-03-07T10:26:06.858Z,98360.97
2023-03-07T10:28:41.242Z,98356.03
2023-03-07T10:31:25.649Z,98348.09
2023-03-07T10:33:56.272Z,98343.16
2023-03-07T10:36:44.327Z,98343.97
2023-03-07T10:39:24.390Z,98345.63
2023-03-07T10:41:54.293Z,98345.41
2023-03-07T10:44:24.597Z,98344.94
2023-03-07T10:46:58.774Z,98347.03
2023-03-07T10:49:31.805Z,98344.09
2023-03-07T10:52:07.434Z,98354.47
2023-03-07T10:54:38.057Z,98350.13
2023-03-07T10:57:10.273Z,98349.97
2023-03-07T10:59:40.958Z,98336.72
2023-03-07T11:02:33.117Z,98342.09
2023-03-07T11:05:02.843Z,98336.50
2023-03-07T11:07:35.979Z,98332.03
2023-03-07T11:10:25.839Z,98330.69
2023-03-07T11:12:58.132Z,98326.63
2023-03-07T11:15:27.622Z,98328.50
2023-03-07T11:17:57.663Z,98324.50
2023-03-07T11:20:30.352Z,98311.13
2023-03-07T11:23:23.444Z,98311.13
2023-03-07T11:25:53.359Z,98298.31
2023-03-07T11:28:28.639Z,98302.69
2023-03-07T11:31:08.550Z,98298.47
2023-03-07T11:33:59.279Z,98306.22
2023-03-07T11:36:32.585Z,98296.13
2023-03-07T11:39:13.618Z,98298.66
2023-03-07T11:41:47.438Z,98304.88
2023-03-07T11:44:31.438Z,98292.28
2023-03-07T11:47:26.062Z,98297.56
2023-03-07T11:50:15.506Z,98290.06
2023-03-07T11:53:03.288Z,98287.19
2023-03-07T11:55:39.502Z,98276.66
2023-03-07T11:58:33.901Z,98265.72
2023-03-07T12:01:12.113Z,98263.34
2023-03-07T12:04:27.514Z,98263.69
2023-03-07T12:07:12.543Z,98260.41
2023-03-07T12:09:52.435Z,98256.97
2023-03-07T12:12:49.578Z,98260.25
2023-03-07T12:15:32.540Z,98259.41
2023-03-07T12:18:55.879Z,98258.31
2023-03-07T12:21:43.706Z,98255.44
2023-03-07T12:24:37.925Z,98251.03
2023-03-07T12:27:14.219Z,98246.44
2023-03-07T12:29:52.100Z,98241.53
2023-03-07T12:32:25.554Z,98240.75
2023-03-07T12:35:01.089Z,98248.84
2023-03-07T12:37:39.462Z,98247.94
2023-03-07T12:40:21.266Z,98242.75
2023-03-07T12:42:59.268Z,98236.38
2023-03-07T12:45:40.234Z,98233.69
2023-03-07T12:48:18.543Z,98251.00
2023-03-07T12:50:55.705Z,98240.78
2023-03-07T12:53:34.942Z,98230.59
2023-03-07T12:56:11.324Z,98233.09
2023-03-07T12:58:46.051Z,98238.75
2023-03-07T13:01:24.405Z,98248.97
2023-03-07T13:03:59.271Z,98240.00
2023-03-07T13:06:29.256Z,98235.63
2023-03-07T13:09:01.567Z,98245.09
2023-03-07T13:11:33.941Z,98241.47
2023-03-07T13:14:03.527Z,98246.25
2023-03-07T13:16:43.016Z,98235.53
2023-03-07T13:19:54.091Z,98237.75
2023-03-07T13:22:59.004Z,98241.47
2023-03-07T13:25:45.066Z,98232.25
2023-03-07T13:28:46.621Z,98247.28
2023-03-07T13:31:39.350Z,98236.75
2023-03-07T13:34:51.566Z,98242.47
2023-03-07T13:37:54.205Z,98247.38
2023-03-07T13:40:46.394Z,98245.41
2023-03-07T13:43:47.846Z,98232.94
2023-03-07T13:46:55.830Z,98241.44
2023-03-07T13:49:39.390Z,98231.94
2023-03-07T13:52:45.743Z,98233.13
2023-03-07T13:55:26.933Z,98238.72
2023-03-07T13:58:01.825Z,98240.78
2023-03-07T14:00:38.734Z,98240.00
2023-03-07T14:03:29.013Z,98238.22
2023-03-07T14:06:06.948Z,98232.56
2023-03-07T14:08:37.495Z,98236.16
2023-03-07T14:11:16.014Z,98230.53
2023-03-07T14:14:04.589Z,98242.25
2023-03-07T14:16:54.386Z,98240.22
2023-03-07T14:19:41.366Z,98229.94
2023-03-07T14:22:23.045Z,98229.88
2023-03-07T14:25:06.648Z,98231.16
2023-03-07T14:27:51.736Z,98220.34
2023-03-07T14:30:22.074Z,98217.44
2023-03-07T14:32:52.064Z,98220.09
2023-03-07T14:35:42.893Z,98225.56
2023-03-07T14:38:22.401Z,98217.97
2023-03-07T14:41:18.737Z,98221.81
2023-03-07T14:43:58.743Z,98220.22
2023-03-07T14:46:38.024Z,98218.44
2023-03-07T14:49:17.928Z,98223.16
2023-03-07T14:51:47.319Z,98213.09
2023-03-07T14:54:18.255Z,98211.78
2023-03-07T14:56:52.717Z,98214.88
2023-03-07T14:59:28.643Z,98215.81
2023-03-07T15:02:00.237Z,98210.41
2023-03-07T15:04:30.744Z,98209.47
2023-03-07T15:07:02.001Z,98213.06
2023-03-07T15:09:31.079Z,98214.88
2023-03-07T15:12:08.979Z,98207.69
2023-03-07T15:14:45.550Z,98201.56
2023-03-07T15:17:20.594Z,98194.59
2023-03-07T15:19:54.813Z,98198.06
2023-03-07T15:22:28.792Z,98202.16
2023-03-07T15:24:58.405Z,98204.81
2023-03-07T15:27:32.235Z,98196.06
2023-03-07T15:30:03.687Z,98205.44
2023-03-07T15:32:36.281Z,98201.63
2023-03-07T15:35:16.292Z,98197.44
2023-03-07T15:37:56.312Z,98196.06
2023-03-07T15:40:29.751Z,98188.84
2023-03-07T15:43:15.623Z,98186.59
2023-03-07T15:45:46.336Z,98177.47
2023-03-07T15:48:25.759Z,98195.34
2023-03-07T15:50:56.708Z,98184.72
2023-03-07T15:53:29.449Z,98181.03
2023-03-07T15:56:00.841Z,98177.44
2023-03-07T15:58:33.965Z,98174.88
2023-03-07T16:01:07.601Z,98181.53
2023-03-07T16:03:37.057Z,98180.28
2023-03-07T16:06:07.956Z,98178.72
2023-03-07T16:08:37.101Z,98178.06
2023-03-07T16:11:09.156Z,98180.47
2023-03-07T16:13:43.107Z,98179.91
2023-03-07T16:16:21.418Z,98182.13
2023-03-07T16:18:52.100Z,98179.13
2023-03-07T16:21:21.503Z,98178.91
2023-03-07T16:23:50.881Z,98183.81
2023-03-07T16:26:22.133Z,98187.94
2023-03-07T16:28:54.290Z,98184.31
2023-03-07T16:31:23.019Z,98181.63
2023-03-07T16:33:52.033Z,98184.94
2023-03-07T16:36:20.651Z,98184.94
2023-03-07T16:38:49.596Z,98189.47
2023-03-07T16:41:19.968Z,98189.59
2023-03-07T16:43:55.849Z,98188.25
2023-03-07T16:46:25.082Z,98191.53
2023-03-07T16:48:54.274Z,98202.91
2023-03-07T16:51:26.130Z,98195.50
2023-03-07T16:53:56.832Z,98198.50
2023-03-07T16:56:30.010Z,98203.88
2023-03-07T16:59:01.525Z,98203.88
2023-03-07T17:01:30.498Z,98206.88
2023-03-07T17:03:59.401Z,98200.72
2023-03-07T17:06:38.951Z,98207.78
2023-03-07T17:09:10.394Z,98200.31
2023-03-07T17:11:40.348Z,98198.09
2023-03-07T17:14:12.991Z,98200.81
2023-03-07T17:16:45.124Z,98198.56
2023-03-07T17:19:26.924Z,98205.13
2023-03-07T17:21:56.281Z,98208.19
2023-03-07T17:24:25.755Z,98203.81
2023-03-07T17:26:56.376Z,98212.16
2023-03-07T17:29:31.820Z,98206.69
2023-03-07T17:32:00.443Z,98209.38
2023-03-07T17:34:31.444Z,98211.16
2023-03-07T17:37:01.658Z,98213.03
2023-03-07T17:39:32.393Z,98216.59
2023-03-07T17:42:02.164Z,98209.44
2023-03-07T17:44:33.877Z,98218.38
2023-03-07T17:47:02.720Z,98212.66
2023-03-07T17:49:36.662Z,98217.69
2023-03-07T17:52:06.572Z,98213.91
2023-03-07T17:54:36.215Z,98213.91
2023-03-07T17:57:05.136Z,98210.53
2023-03-07T17:59:35.791Z,98213.84
2023-03-07T18:02:05.730Z,98216.66
2023-03-07T18:04:34.726Z,98212.41
2023-03-07T18:07:03.922Z,98210.56
2023-03-07T18:09:33.430Z,98204.03
2023-03-07T18:12:02.502Z,98207.16
2023-03-07T18:14:31.365Z,98205.69
2023-03-07T18:17:01.599Z,98204.81
2023-03-07T18:19:30.524Z,98204.22
2023-03-07T18:21:59.122Z,98209.75
2023-03-07T18:24:30.171Z,98220.75
2023-03-07T18:27:00.283Z,98211.81
2023-03-07T18:29:30.812Z,98201.53
2023-03-07T18:31:59.447Z,98203.34
2023-03-07T18:34:29.913Z,98211.94
2023-03-07T18:36:58.474Z,98207.69
2023-03-07T18:39:27.393Z,98209.81
2023-03-07T18:41:55.964Z,98202.16
2023-03-07T18:44:24.945Z,98202.38
2023-03-07T18:46:53.730Z,98205.56
2023-03-07T18:49:22.713Z,98204.72
2023-03-07T18:51:52.978Z,98199.66
2023-03-07T18:54:21.852Z,98197.91
2023-03-07T18:56:50.382Z,98198.25
2023-03-07T18:59:19.588Z,98198.97
2023-03-07T19:01:50.245Z,98197.94
2023-03-07T19:04:19.409Z,98201.50
2023-03-07T19:06:48.917Z,98195.41
2023-03-07T19:09:21.083Z,98189.56
2023-03-07T19:11:49.733Z,98197.53
2023-03-07T19:14:18.852Z,98194.81
2023-03-07T19:16:47.617Z,98188.63
2023-03-07T19:19:16.610Z,98197.03
2023-03-07T19:21:45.229Z,98196.13
2023-03-07T19:24:14.243Z,98207.16
2023-03-07T19:26:44.239Z,98202.97
2023-03-07T19:29:13.270Z,98202.00
2023-03-07T19:31:43.899Z,98192.91
2023-03-07T19:34:13.044Z,98203.72
2023-03-07T19:36:42.605Z,98203.38
2023-03-07T19:39:15.271Z,98199.72
2023-03-07T19:41:48.029Z,98193.66
2023-03-07T19:44:18.074Z,98196.09
2023-03-07T19:46:47.326Z,98198.50
2023-03-07T19:49:17.639Z,98213.72
2023-03-07T19:51:46.481Z,98200.41
2023-03-07T19:54:15.988Z,98213.72
2023-03-07T19:56:46.214Z,98197.94
2023-03-07T19:59:15.510Z,98202.75
2023-03-07T20:01:45.187Z,98206.72
2023-03-07T20:04:16.060Z,98206.50
2023-03-07T20:06:45.274Z,98214.66
2023-03-07T20:09:14.843Z,98215.81
2023-03-07T20:11:44.392Z,98215.72
2023-03-07T20:14:14.808Z,98213.72
2023-03-07T20:16:43.457Z,98212.56
2023-03-07T20:19:12.387Z,98216.75
2023-03-07T20:21:42.497Z,98216.50
2023-03-07T20:24:12.882Z,98212.25
2023-03-07T20:26:41.720Z,98208.59
2023-03-07T20:29:11.972Z,98211.47
2023-03-07T20:31:42.061Z,98217.53
2023-03-07T20:34:12.321Z,98222.94
2023-03-07T20:36:41.529Z,98220.53
2023-03-07T20:39:14.622Z,98223.78
2023-03-07T20:41:44.587Z,98218.69
2023-03-07T20:44:16.394Z,98222.94
2023-03-07T20:46:46.572Z,98229.75
2023-03-07T20:49:16.912Z,98217.13
2023-03-07T20:51:45.862Z,98225.56
2023-03-07T20:54:16.610Z,98222.56
2023-03-07T20:56:46.755Z,98230.56
2023-03-07T20:59:17.565Z,98228.38
2023-03-07T21:01:48.011Z,98229.88
2023-03-07T21:04:18.548Z,98230.81
2023-03-07T21:06:48.418Z,98235.19
2023-03-07T21:09:19.351Z,98240.72
2023-03-07T21:11:50.392Z,98238.66
2023-03-07T21:14:20.639Z,98243.59
2023-03-07T21:16:50.624Z,98244.84
2023-03-07T21:19:20.229Z,98247.34
2023-03-07T21:21:49.279Z,98248.91
2023-03-07T21:24:18.454Z,98243.75
2023-03-07T21:26:47.502Z,98242.44
2023-03-07T21:29:16.624Z,98246.63
2023-03-07T21:31:45.244Z,98247.91
2023-03-07T21:34:15.694Z,98245.34
2023-03-07T21:36:45.921Z,98254.28
2023-03-07T21:39:15.183Z,98251.06
2023-03-07T21:41:43.925Z,98260.00
2023-03-07T21:44:14.424Z,98259.00
2023-03-07T21:46:44.268Z,98255.28
2023-03-07T21:49:13.587Z,98258.56
2023-03-07T21:51:43.685Z,98250.50
2023-03-07T21:54:12.765Z,98252.66
2023-03-07T21:56:41.498Z,98260.31
2023-03-07T21:59:10.543Z,98261.53
2023-03-07T22:01:39.372Z,98269.88
2023-03-07T22:04:08.348Z,98276.31
2023-03-07T22:06:37.306Z,98279.50
2023-03-07T22:09:07.759Z,98280.50
2023-03-07T22:11:36.346Z,98280.75
2023-03-07T22:14:05.297Z,98287.13
2023-03-07T22:16:33.855Z,98287.97
2023-03-07T22:19:02.737Z,98289.81
2023-03-07T22:21:31.472Z,98291.75
2023-03-07T22:24:01.334Z,98292.19
2023-03-07T22:26:32.866Z,98298.13
2023-03-07T22:29:02.728Z,98301.16
2023-03-07T22:31:32.027Z,98292.06
2023-03-07T22:34:01.213Z,98289.06
2023-03-07T22:36:29.954Z,98297.53
2023-03-07T22:38:58.843Z,98298.72
2023-03-07T22:41:27.882Z,98300.44
2023-03-07T22:43:58.217Z,98304.16
2023-03-07T22:46:26.795Z,98300.19
2023-03-07T22:48:57.494Z,98306.16
2023-03-07T22:51:27.154Z,98301.63
2023-03-07T22:53:56.406Z,98305.50
2023-03-07T22:56:27.119Z,98310.16
2023-03-07T22:58:57.707Z,98302.50
2023-03-07T23:01:27.685Z,98307.50
2023-03-07T23:03:58.319Z,98309.47
2023-03-07T23:06:29.178Z,98308.34
2023-03-07T23:08:59.851Z,98307.84
2023-03-07T23:11:30.137Z,98315.19
2023-03-07T23:14:00.923Z,98312.72
2023-03-07T23:16:31.661Z,98318.22
2023-03-07T23:19:01.416Z,98317.81
2023-03-07T23:21:31.899Z,98314.50
2023-03-07T23:24:03.464Z,98320.38
2023-03-07T23:26:33.901Z,98319.47
2023-03-07T23:29:04.965Z,98309.31
2023-03-07T23:31:36.410Z,98316.56
2023-03-07T23:34:07.675Z,98319.75
2023-03-07T23:36:36.694Z,98317.22
2023-03-07T23:39:05.720Z,98312.50
2023-03-07T23:41:34.346Z,98316.47
2023-03-07T23:44:05.100Z,98320.16
2023-03-07T23:46:34.118Z,98316.00
2023-03-07T23:49:03.322Z,98312.78
2023-03-07T23:51:32.009Z,98313.41
2023-03-07T23:54:01.009Z,98312.41
2023-03-07T23:56:29.863Z,98311.78
2023-03-07T23:58:58.829Z,98325.25
